createdAt,value
2018-08-09T00:00:47.984Z,0.00
2018-08-09T00:01:47.924Z,0.00
2018-08-09T00:02:47.912Z,0.00
2018-08-09T00:03:47.932Z,0.00
2018-08-09T00:04:47.985Z,0.00
2018-08-09T00:05:47.990Z,0.00
2018-08-09T00:06:47.981Z,0.00
2018-08-09T00:07:47.969Z,0.00
2018-08-09T00:08:47.992Z,0.00
2018-08-09T00:09:48.404Z,0.00
2018-08-09T00:10:47.951Z,0.00
2018-08-09T00:11:54.129Z,0.00
2018-08-09T00:12:53.913Z,0.00
2018-08-09T00:13:53.942Z,0.00
2018-08-09T00:14:47.924Z,0.00
2018-08-09T00:15:47.888Z,0.00
2018-08-09T00:16:48.183Z,0.00
2018-08-09T00:17:47.561Z,0.00
2018-08-09T00:18:48.023Z,0.00
2018-08-09T00:19:48.065Z,0.00
2018-08-09T00:20:48.084Z,0.00
2018-08-09T00:21:47.981Z,0.00
2018-08-09T00:22:48.016Z,0.00
2018-08-09T00:23:54.494Z,0.00
2018-08-09T00:25:01.935Z,0.00
2018-08-09T00:25:47.922Z,0.00
2018-08-09T00:26:48.471Z,0.00
2018-08-09T00:27:47.942Z,0.00
2018-08-09T00:28:53.905Z,0.00
2018-08-09T00:29:47.963Z,0.00
2018-08-09T00:31:01.295Z,0.00
2018-08-09T00:31:47.968Z,0.00
2018-08-09T00:32:47.897Z,0.00
2018-08-09T00:33:47.908Z,0.00
2018-08-09T00:34:49.721Z,0.00
2018-08-09T00:35:47.979Z,0.00
2018-08-09T00:36:53.949Z,0.00
2018-08-09T00:38:01.937Z,0.00
2018-08-09T00:38:47.933Z,0.00
2018-08-09T00:39:47.931Z,0.00
2018-08-09T00:40:47.955Z,0.00
2018-08-09T00:41:47.893Z,0.00
2018-08-09T00:42:48.450Z,0.00
2018-08-09T00:44:48.098Z,0.00
2018-08-09T00:45:47.962Z,0.00
2018-08-09T00:46:47.992Z,0.00
2018-08-09T00:47:48.455Z,0.00
2018-08-09T00:48:47.936Z,0.00
2018-08-09T00:49:48.121Z,0.00
2018-08-09T00:50:54.124Z,0.00
2018-08-09T00:51:53.931Z,0.00
2018-08-09T00:52:53.921Z,0.00
2018-08-09T00:53:53.922Z,0.00
2018-08-09T00:54:53.914Z,0.00
2018-08-09T00:55:53.929Z,0.00
2018-08-09T00:56:47.913Z,0.00
2018-08-09T00:57:47.916Z,0.00
2018-08-09T00:58:47.920Z,0.00
2018-08-09T00:59:47.949Z,0.00
2018-08-09T01:00:47.926Z,0.00
2018-08-09T01:01:47.922Z,0.00
2018-08-09T01:02:47.916Z,0.00
2018-08-09T01:03:47.977Z,0.00
2018-08-09T01:04:47.920Z,0.00
2018-08-09T01:05:47.938Z,0.00
2018-08-09T01:06:48.147Z,0.00
2018-08-09T01:07:48.147Z,0.00
2018-08-09T01:08:48.146Z,0.00
2018-08-09T01:09:47.939Z,0.00
2018-08-09T01:10:47.974Z,0.00
2018-08-09T01:11:47.922Z,0.00
2018-08-09T01:12:47.987Z,0.00
2018-08-09T01:13:47.940Z,0.00
2018-08-09T01:14:48.150Z,0.00
2018-08-09T01:15:48.156Z,0.00
2018-08-09T01:16:47.933Z,0.00
2018-08-09T01:17:47.939Z,0.00
2018-08-09T01:18:47.982Z,0.00
2018-08-09T01:19:47.926Z,0.00
2018-08-09T01:20:48.162Z,0.00
2018-08-09T01:21:48.155Z,0.00
2018-08-09T01:22:48.142Z,0.00
2018-08-09T01:23:48.152Z,0.00
2018-08-09T01:24:47.982Z,0.00
2018-08-09T01:25:48.155Z,0.00
2018-08-09T01:26:48.154Z,0.00
2018-08-09T01:27:48.160Z,0.00
2018-08-09T01:28:48.162Z,0.00
2018-08-09T01:29:48.136Z,0.00
2018-08-09T01:30:47.948Z,0.00
2018-08-09T01:31:47.888Z,0.00
2018-08-09T01:32:47.959Z,0.00
2018-08-09T01:33:47.967Z,0.00
2018-08-09T01:34:48.156Z,0.00
2018-08-09T01:35:47.924Z,0.00
2018-08-09T01:36:47.920Z,0.00
2018-08-09T01:37:47.908Z,0.00
2018-08-09T01:38:47.988Z,0.00
2018-08-09T01:39:47.965Z,0.00
2018-08-09T01:40:47.927Z,0.00
2018-08-09T01:41:47.927Z,0.00
2018-08-09T01:42:47.917Z,0.00
2018-08-09T01:43:48.166Z,0.00
2018-08-09T01:44:47.919Z,0.00
2018-08-09T01:45:47.923Z,0.00
2018-08-09T01:46:49.739Z,0.00
2018-08-09T01:47:48.143Z,0.00
2018-08-09T01:48:48.168Z,0.00
2018-08-09T01:49:48.154Z,0.00
2018-08-09T01:50:48.169Z,0.00
2018-08-09T01:51:48.167Z,0.00
2018-08-09T01:52:47.977Z,0.00
2018-08-09T01:53:47.974Z,0.00
2018-08-09T01:54:49.740Z,0.00
2018-08-09T01:55:50.163Z,0.00
2018-08-09T01:56:47.969Z,0.00
2018-08-09T01:57:47.985Z,0.00
2018-08-09T01:58:48.170Z,0.00
2018-08-09T01:59:48.168Z,0.00
2018-08-09T02:00:49.763Z,0.00
2018-08-09T02:01:48.175Z,0.00
2018-08-09T02:02:47.998Z,0.00
2018-08-09T02:03:47.982Z,0.00
2018-08-09T02:04:48.264Z,0.00
2018-08-09T02:05:48.174Z,0.00
2018-08-09T02:06:49.775Z,0.00
2018-08-09T02:07:48.022Z,0.00
2018-08-09T02:08:47.946Z,0.00
2018-08-09T02:09:48.175Z,0.00
2018-08-09T02:10:47.922Z,0.00
2018-08-09T02:11:48.201Z,0.00
2018-08-09T02:12:47.613Z,0.00
2018-08-09T02:13:47.935Z,0.00
2018-08-09T02:14:48.069Z,0.00
2018-08-09T02:15:48.025Z,0.00
2018-08-09T02:16:48.021Z,0.00
2018-08-09T02:17:48.071Z,0.00
2018-08-09T02:18:48.046Z,0.00
2018-08-09T02:19:47.958Z,0.00
2018-08-09T02:20:47.947Z,0.00
2018-08-09T02:21:48.090Z,0.00
2018-08-09T02:22:48.017Z,0.00
2018-08-09T02:23:48.073Z,0.00
2018-08-09T02:24:48.527Z,0.00
2018-08-09T02:25:47.961Z,0.00
2018-08-09T02:26:48.016Z,0.00
2018-08-09T02:27:47.997Z,0.00
2018-08-09T02:28:47.940Z,0.00
2018-08-09T02:29:47.648Z,0.00
2018-08-09T02:30:48.036Z,0.00
2018-08-09T02:31:48.149Z,0.00
2018-08-09T02:32:47.982Z,0.00
2018-08-09T02:33:48.150Z,0.00
2018-08-09T02:34:48.089Z,0.00
2018-08-09T02:35:48.016Z,0.00
2018-08-09T02:36:48.007Z,0.00
2018-08-09T02:37:48.221Z,0.00
2018-08-09T02:38:47.537Z,0.00
2018-08-09T02:39:48.080Z,0.00
2018-08-09T02:40:47.963Z,0.00
2018-08-09T02:41:47.983Z,0.00
2018-08-09T02:42:48.013Z,0.00
2018-08-09T02:43:48.057Z,0.00
2018-08-09T02:44:48.065Z,0.00
2018-08-09T02:45:48.009Z,0.00
2018-08-09T02:46:48.053Z,0.00
2018-08-09T02:47:48.086Z,0.00
2018-08-09T02:48:48.206Z,0.00
2018-08-09T02:49:48.791Z,0.00
2018-08-09T02:50:47.965Z,0.00
2018-08-09T02:51:47.982Z,0.00
2018-08-09T02:52:47.985Z,0.00
2018-08-09T02:53:47.977Z,0.00
2018-08-09T02:54:47.981Z,0.00
2018-08-09T02:55:47.980Z,0.00
2018-08-09T02:56:47.993Z,0.00
2018-08-09T02:57:47.988Z,0.00
2018-08-09T02:58:47.992Z,0.00
2018-08-09T02:59:47.975Z,0.00
2018-08-09T03:00:48.001Z,0.00
2018-08-09T03:01:48.001Z,0.00
2018-08-09T03:02:47.971Z,0.00
2018-08-09T03:03:48.000Z,0.00
2018-08-09T03:04:48.000Z,0.00
2018-08-09T03:05:47.971Z,0.00
2018-08-09T03:06:48.171Z,0.00
2018-08-09T03:07:47.986Z,0.00
2018-08-09T03:08:48.015Z,0.00
2018-08-09T03:09:47.992Z,0.00
2018-08-09T03:10:48.004Z,0.00
2018-08-09T03:11:47.989Z,0.00
2018-08-09T03:12:48.017Z,0.00
2018-08-09T03:13:48.178Z,0.00
2018-08-09T03:14:48.182Z,0.00
2018-08-09T03:15:48.038Z,0.00
2018-08-09T03:16:48.202Z,0.00
2018-08-09T03:17:48.178Z,0.00
2018-08-09T03:18:48.009Z,0.00
2018-08-09T03:19:48.018Z,0.00
2018-08-09T03:20:48.544Z,0.00
2018-08-09T03:21:48.119Z,0.00
2018-08-09T03:22:48.205Z,0.00
2018-08-09T03:23:48.507Z,0.00
2018-08-09T03:24:48.031Z,0.00
2018-08-09T03:25:47.968Z,0.00
2018-08-09T03:26:47.982Z,0.00
2018-08-09T03:27:47.981Z,0.00
2018-08-09T03:28:47.966Z,0.00
2018-08-09T03:29:48.017Z,0.00
2018-08-09T03:30:47.980Z,0.00
2018-08-09T03:31:48.236Z,0.00
2018-08-09T03:32:47.556Z,0.00
2018-08-09T03:33:48.021Z,0.00
2018-08-09T03:34:47.985Z,0.00
2018-08-09T03:35:47.985Z,0.00
2018-08-09T03:36:48.017Z,4.00
2018-08-09T03:37:48.065Z,4.00
2018-08-09T03:38:48.004Z,0.00
2018-08-09T03:39:48.029Z,4.00
2018-08-09T03:40:48.042Z,4.00
2018-08-09T03:41:48.049Z,4.00
2018-08-09T03:42:48.522Z,8.00
2018-08-09T03:43:48.206Z,8.00
2018-08-09T03:44:48.526Z,8.00
2018-08-09T03:45:48.184Z,12.00
2018-08-09T03:46:48.002Z,12.00
2018-08-09T03:47:48.020Z,12.00
2018-08-09T03:48:48.024Z,16.00
2018-08-09T03:49:47.956Z,16.00
2018-08-09T03:50:48.287Z,20.00
2018-08-09T03:51:47.973Z,20.00
2018-08-09T03:52:48.188Z,28.00
2018-08-09T03:53:48.197Z,32.00
2018-08-09T03:54:48.016Z,36.00
2018-08-09T03:55:47.980Z,40.00
2018-08-09T03:56:48.198Z,44.00
2018-08-09T03:57:48.012Z,48.00
2018-08-09T03:58:48.190Z,52.00
2018-08-09T03:59:48.292Z,56.00
2018-08-09T04:00:46.520Z,64.00
2018-08-09T04:01:46.560Z,68.00
2018-08-09T04:02:47.211Z,76.00
2018-08-09T04:03:47.658Z,80.00
2018-08-09T04:04:47.200Z,84.00
2018-08-09T04:05:48.062Z,88.00
2018-08-09T04:06:48.063Z,100.00
2018-08-09T04:07:48.102Z,108.00
2018-08-09T04:08:47.697Z,116.00
2018-08-09T04:09:47.654Z,128.00
2018-08-09T04:10:48.076Z,136.00
2018-08-09T04:11:47.631Z,148.00
2018-08-09T04:12:46.534Z,160.00
2018-08-09T04:13:47.668Z,172.00
2018-08-09T04:14:47.662Z,180.00
2018-08-09T04:15:47.609Z,196.00
2018-08-09T04:16:48.185Z,208.00
2018-08-09T04:17:47.501Z,216.00
2018-08-09T04:18:47.699Z,216.00
2018-08-09T04:19:47.688Z,212.00
2018-08-09T04:20:50.216Z,208.00
2018-08-09T04:21:47.321Z,204.00
2018-08-09T04:22:48.662Z,200.00
2018-08-09T04:23:47.702Z,196.00
2018-08-09T04:24:48.205Z,196.00
2018-08-09T04:25:47.585Z,204.00
2018-08-09T04:26:48.197Z,212.00
2018-08-09T04:27:48.404Z,228.00
2018-08-09T04:28:48.034Z,240.00
2018-08-09T04:29:48.037Z,256.00
2018-08-09T04:30:48.090Z,276.00
2018-08-09T04:31:48.308Z,296.00
2018-08-09T04:32:48.228Z,312.00
2018-08-09T04:33:48.060Z,332.00
2018-08-09T04:34:48.318Z,360.00
2018-08-09T04:35:48.107Z,388.00
2018-08-09T04:36:48.223Z,416.00
2018-08-09T04:37:48.581Z,432.00
2018-08-09T04:38:49.713Z,460.00
2018-08-09T04:39:48.099Z,472.00
2018-08-09T04:40:48.072Z,496.00
2018-08-09T04:41:48.530Z,520.00
2018-08-09T04:42:48.229Z,532.00
2018-08-09T04:43:48.001Z,544.00
2018-08-09T04:44:48.255Z,540.00
2018-08-09T04:45:49.890Z,544.00
2018-08-09T04:46:48.086Z,564.00
2018-08-09T04:47:48.064Z,584.00
2018-08-09T04:48:48.135Z,596.00
2018-08-09T04:49:48.279Z,604.00
2018-08-09T04:50:48.307Z,604.00
2018-08-09T04:51:48.006Z,604.00
2018-08-09T04:52:48.075Z,616.00
2018-08-09T04:53:48.064Z,656.00
2018-08-09T04:54:48.249Z,696.00
2018-08-09T04:55:48.080Z,720.00
2018-08-09T04:56:48.022Z,732.00
2018-08-09T04:57:48.048Z,704.00
2018-08-09T04:58:48.024Z,600.00
2018-08-09T04:59:48.067Z,484.00
2018-08-09T05:00:48.084Z,432.00
2018-08-09T05:01:48.076Z,428.00
2018-08-09T05:02:48.584Z,424.00
2018-08-09T05:03:48.077Z,436.00
2018-08-09T05:04:48.578Z,456.00
2018-08-09T05:05:48.055Z,472.00
2018-08-09T05:06:48.205Z,472.00
2018-08-09T05:07:48.218Z,480.00
2018-08-09T05:08:48.527Z,488.00
2018-08-09T05:09:48.579Z,480.00
2018-08-09T05:10:48.558Z,488.00
2018-08-09T05:11:48.105Z,536.00
2018-08-09T05:12:48.064Z,612.00
2018-08-09T05:13:48.558Z,648.00
2018-08-09T05:14:48.326Z,660.00
2018-08-09T05:15:48.227Z,688.00
2018-08-09T05:16:48.118Z,708.00
2018-08-09T05:17:48.082Z,748.00
2018-08-09T05:18:48.073Z,724.00
2018-08-09T05:19:48.225Z,660.00
2018-08-09T05:20:48.087Z,592.00
2018-08-09T05:21:48.278Z,572.00
2018-08-09T05:22:48.053Z,572.00
2018-08-09T05:23:48.082Z,540.00
2018-08-09T05:24:48.034Z,536.00
2018-08-09T05:25:48.738Z,532.00
2018-08-09T05:26:48.027Z,544.00
2018-08-09T05:27:47.991Z,596.00
2018-08-09T05:28:48.245Z,588.00
2018-08-09T05:29:48.273Z,580.00
2018-08-09T05:30:48.091Z,576.00
2018-08-09T05:31:48.091Z,560.00
2018-08-09T05:32:48.590Z,576.00
2018-08-09T05:33:48.280Z,568.00
2018-08-09T05:34:48.108Z,600.00
2018-08-09T05:35:48.587Z,640.00
2018-08-09T05:36:48.447Z,616.00
2018-08-09T05:37:48.577Z,576.00
2018-08-09T05:38:48.096Z,540.00
2018-08-09T05:39:48.038Z,568.00
2018-08-09T05:40:48.275Z,592.00
2018-08-09T05:41:48.711Z,612.00
2018-08-09T05:42:48.062Z,620.00
2018-08-09T05:43:48.514Z,680.00
2018-08-09T05:44:48.285Z,796.00
2018-08-09T05:45:48.110Z,952.00
2018-08-09T05:46:48.378Z,1056.00
2018-08-09T05:47:48.590Z,1172.00
2018-08-09T05:48:48.595Z,1240.00
2018-08-09T05:49:48.863Z,1204.00
2018-08-09T05:50:49.673Z,1136.00
2018-08-09T05:51:46.567Z,1048.00
2018-08-09T05:52:48.692Z,948.00
2018-08-09T05:53:47.040Z,928.00
2018-08-09T05:54:46.960Z,872.00
2018-08-09T05:55:47.298Z,744.00
2018-08-09T05:56:48.005Z,672.00
2018-08-09T05:57:48.235Z,700.00
2018-08-09T05:58:47.988Z,772.00
2018-08-09T05:59:46.656Z,784.00
2018-08-09T06:00:46.623Z,736.00
2018-08-09T06:01:48.696Z,704.00
2018-08-09T06:02:47.991Z,760.00
2018-08-09T06:03:48.078Z,828.00
2018-08-09T06:04:48.512Z,824.00
2018-08-09T06:05:47.666Z,816.00
2018-08-09T06:06:47.787Z,816.00
2018-08-09T06:07:47.338Z,796.00
2018-08-09T06:08:46.568Z,740.00
2018-08-09T06:09:48.062Z,684.00
2018-08-09T06:10:47.573Z,660.00
2018-08-09T06:11:47.579Z,668.00
2018-08-09T06:12:47.793Z,700.00
2018-08-09T06:13:46.600Z,764.00
2018-08-09T06:14:46.570Z,776.00
2018-08-09T06:15:46.713Z,772.00
2018-08-09T06:16:46.635Z,800.00
2018-08-09T06:17:47.600Z,848.00
2018-08-09T06:18:47.846Z,880.00
2018-08-09T06:19:46.588Z,888.00
2018-08-09T06:20:47.815Z,852.00
2018-08-09T06:21:46.652Z,812.00
2018-08-09T06:22:46.600Z,760.00
2018-08-09T06:23:46.580Z,704.00
2018-08-09T06:24:48.339Z,672.00
2018-08-09T06:25:48.927Z,724.00
2018-08-09T06:26:49.416Z,868.00
2018-08-09T06:27:46.553Z,1060.00
2018-08-09T06:28:47.742Z,1240.00
2018-08-09T06:29:46.556Z,1408.00
2018-08-09T06:30:46.667Z,1608.00
2018-08-09T06:31:46.562Z,1724.00
2018-08-09T06:32:47.747Z,1784.00
2018-08-09T06:33:47.977Z,1784.00
2018-08-09T06:34:48.427Z,1764.00
2018-08-09T06:35:46.575Z,1696.00
2018-08-09T06:36:48.464Z,1616.00
2018-08-09T06:37:48.222Z,1552.00
2018-08-09T06:38:47.614Z,1576.00
2018-08-09T06:39:47.739Z,1732.00
2018-08-09T06:40:48.080Z,1984.00
2018-08-09T06:41:46.652Z,2192.00
2018-08-09T06:42:48.380Z,2288.00
2018-08-09T06:43:48.316Z,2348.00
2018-08-09T06:44:48.109Z,2328.00
2018-08-09T06:45:46.665Z,2260.00
2018-08-09T06:46:46.709Z,2308.00
2018-08-09T06:47:48.700Z,2212.00
2018-08-09T06:48:48.110Z,1844.00
2018-08-09T06:49:48.598Z,1428.00
2018-08-09T06:50:47.752Z,1132.00
2018-08-09T06:51:46.628Z,884.00
2018-08-09T06:52:48.109Z,768.00
2018-08-09T06:53:48.088Z,744.00
2018-08-09T06:54:48.160Z,776.00
2018-08-09T06:55:47.773Z,800.00
2018-08-09T06:56:47.924Z,764.00
2018-08-09T06:57:48.496Z,724.00
2018-08-09T06:58:48.022Z,680.00
2018-08-09T06:59:47.549Z,672.00
2018-08-09T07:00:47.680Z,720.00
2018-08-09T07:01:48.037Z,828.00
2018-08-09T07:02:48.102Z,952.00
2018-08-09T07:03:50.237Z,1044.00
2018-08-09T07:04:47.737Z,1084.00
2018-08-09T07:05:48.148Z,1132.00
2018-08-09T07:06:48.139Z,1180.00
2018-08-09T07:07:48.012Z,1192.00
2018-08-09T07:08:48.695Z,1368.00
2018-08-09T07:09:47.672Z,1744.00
2018-08-09T07:10:47.535Z,2184.00
2018-08-09T07:11:47.783Z,2516.00
2018-08-09T07:12:48.110Z,2728.00
2018-08-09T07:13:47.646Z,2716.00
2018-08-09T07:14:48.604Z,2652.00
2018-08-09T07:15:48.123Z,2432.00
2018-08-09T07:16:48.009Z,2136.00
2018-08-09T07:17:48.074Z,1756.00
2018-08-09T07:18:49.762Z,1556.00
2018-08-09T07:19:48.082Z,1488.00
2018-08-09T07:20:48.128Z,1412.00
2018-08-09T07:21:48.175Z,1432.00
2018-08-09T07:22:49.513Z,1428.00
2018-08-09T07:23:48.123Z,1324.00
2018-08-09T07:24:48.342Z,1268.00
2018-08-09T07:25:48.411Z,1216.00
2018-08-09T07:26:48.182Z,1120.00
2018-08-09T07:27:47.662Z,1076.00
2018-08-09T07:28:48.110Z,1152.00
2018-08-09T07:29:47.687Z,1372.00
2018-08-09T07:30:48.129Z,1672.00
2018-08-09T07:31:48.341Z,1892.00
2018-08-09T07:32:48.310Z,2132.00
2018-08-09T07:33:48.425Z,2464.00
2018-08-09T07:34:48.190Z,2864.00
2018-08-09T07:35:46.696Z,3112.00
2018-08-09T07:36:46.620Z,3372.00
2018-08-09T07:37:48.282Z,3644.00
2018-08-09T07:38:48.749Z,3900.00
2018-08-09T07:39:48.216Z,4128.00
2018-08-09T07:40:48.193Z,4364.00
2018-08-09T07:41:48.127Z,4788.00
2018-08-09T07:42:48.176Z,5248.00
2018-08-09T07:43:48.644Z,5448.00
2018-08-09T07:44:48.142Z,5584.00
2018-08-09T07:45:48.346Z,5560.00
2018-08-09T07:46:48.394Z,5292.00
2018-08-09T07:47:48.132Z,4960.00
2018-08-09T07:48:48.385Z,4884.00
2018-08-09T07:49:48.384Z,4876.00
2018-08-09T07:50:48.297Z,4800.00
2018-08-09T07:51:47.763Z,4484.00
2018-08-09T07:52:47.922Z,4216.00
2018-08-09T07:54:48.780Z,3860.00
2018-08-09T07:55:48.463Z,3464.00
2018-08-09T07:56:48.814Z,3152.00
2018-08-09T07:57:48.161Z,3016.00
2018-08-09T07:58:48.287Z,3056.00
2018-08-09T07:59:48.382Z,3128.00
2018-08-09T08:00:48.594Z,2860.00
2018-08-09T08:01:48.115Z,2576.00
2018-08-09T08:02:48.377Z,2520.00
2018-08-09T08:03:46.711Z,2628.00
2018-08-09T08:04:48.392Z,2756.00
2018-08-09T08:05:48.202Z,2704.00
2018-08-09T08:06:49.908Z,2568.00
2018-08-09T08:07:48.110Z,2544.00
2018-08-09T08:08:48.100Z,2584.00
2018-08-09T08:09:48.400Z,2524.00
2018-08-09T08:10:48.346Z,2300.00
2018-08-09T08:11:48.164Z,2084.00
2018-08-09T08:12:48.702Z,1920.00
2018-08-09T08:13:48.123Z,1844.00
2018-08-09T08:14:48.314Z,1800.00
2018-08-09T08:15:48.303Z,1768.00
2018-08-09T08:16:48.401Z,1868.00
2018-08-09T08:17:48.165Z,2048.00
2018-08-09T08:18:48.688Z,2240.00
2018-08-09T08:19:48.568Z,2444.00
2018-08-09T08:20:48.387Z,2632.00
2018-08-09T08:21:48.295Z,2864.00
2018-08-09T08:22:48.364Z,3156.00
2018-08-09T08:23:47.809Z,3648.00
2018-08-09T08:24:48.139Z,4040.00
2018-08-09T08:25:50.302Z,4176.00
2018-08-09T08:26:48.902Z,4140.00
2018-08-09T08:27:48.155Z,4240.00
2018-08-09T08:28:48.678Z,4508.00
2018-08-09T08:29:50.791Z,4816.00
2018-08-09T08:30:48.340Z,5168.00
2018-08-09T08:31:48.293Z,5484.00
2018-08-09T08:32:48.280Z,5592.00
2018-08-09T08:33:48.360Z,5492.00
2018-08-09T08:34:48.297Z,5308.00
2018-08-09T08:35:48.600Z,5172.00
2018-08-09T08:36:48.581Z,5008.00
2018-08-09T08:37:48.865Z,4724.00
2018-08-09T08:38:48.862Z,4648.00
2018-08-09T08:39:48.658Z,5116.00
2018-08-09T08:40:48.807Z,5504.00
2018-08-09T08:41:48.292Z,5524.00
2018-08-09T08:42:48.192Z,5448.00
2018-08-09T08:43:48.711Z,5184.00
2018-08-09T08:44:48.398Z,5344.00
2018-08-09T08:45:48.185Z,5856.00
2018-08-09T08:46:48.724Z,6036.00
2018-08-09T08:47:48.253Z,6552.00
2018-08-09T08:48:48.687Z,6840.00
2018-08-09T08:49:48.825Z,6544.00
2018-08-09T08:50:47.945Z,6580.00
2018-08-09T08:51:47.802Z,6048.00
2018-08-09T08:52:48.305Z,5864.00
2018-08-09T08:53:48.805Z,5648.00
2018-08-09T08:54:48.331Z,5524.00
2018-08-09T08:55:48.391Z,4904.00
2018-08-09T08:56:48.816Z,4792.00
2018-08-09T08:57:47.920Z,4560.00
2018-08-09T08:58:48.384Z,4360.00
2018-08-09T08:59:48.205Z,4564.00
2018-08-09T09:00:48.218Z,4168.00
2018-08-09T09:01:48.084Z,3972.00
2018-08-09T09:02:48.591Z,3800.00
2018-08-09T09:03:48.243Z,3628.00
2018-08-09T09:04:49.053Z,3528.00
2018-08-09T09:05:50.194Z,3472.00
2018-08-09T09:06:48.674Z,3500.00
2018-08-09T09:07:48.320Z,3520.00
2018-08-09T09:08:52.012Z,3980.00
2018-08-09T09:09:48.210Z,4184.00
2018-08-09T09:10:48.871Z,4308.00
2018-08-09T09:11:48.227Z,4696.00
2018-08-09T09:12:50.414Z,4820.00
2018-08-09T09:13:48.771Z,4936.00
2018-08-09T09:14:48.155Z,5120.00
2018-08-09T09:15:48.711Z,5192.00
2018-08-09T09:16:48.372Z,5216.00
2018-08-09T09:17:48.429Z,5412.00
2018-08-09T09:18:48.234Z,5880.00
2018-08-09T09:19:48.479Z,5920.00
2018-08-09T09:20:48.590Z,6024.00
2018-08-09T09:21:48.296Z,5816.00
2018-08-09T09:22:48.279Z,5204.00
2018-08-09T09:23:48.177Z,5420.00
2018-08-09T09:24:50.509Z,5512.00
2018-08-09T09:25:48.370Z,5188.00
2018-08-09T09:27:48.390Z,5036.00
2018-08-09T09:28:50.291Z,5300.00
2018-08-09T09:29:48.311Z,5628.00
2018-08-09T09:30:48.554Z,5652.00
2018-08-09T09:31:48.305Z,5780.00
2018-08-09T09:32:50.159Z,6936.00
2018-08-09T09:33:48.323Z,8624.00
2018-08-09T09:34:48.898Z,8012.00
2018-08-09T09:35:48.325Z,6240.00
2018-08-09T09:36:48.900Z,5852.00
2018-08-09T09:37:48.321Z,5852.00
2018-08-09T09:38:48.375Z,6012.00
2018-08-09T09:39:48.692Z,5960.00
2018-08-09T09:40:48.597Z,5876.00
2018-08-09T09:41:47.972Z,6020.00
2018-08-09T09:42:48.667Z,5688.00
2018-08-09T09:43:48.878Z,5736.00
2018-08-09T09:44:47.971Z,6748.00
2018-08-09T09:45:48.690Z,7680.00
2018-08-09T09:46:48.303Z,8172.00
2018-08-09T09:47:48.885Z,8992.00
2018-08-09T09:48:47.990Z,9212.00
2018-08-09T09:49:48.924Z,8424.00
2018-08-09T09:50:49.172Z,7716.00
2018-08-09T09:51:48.667Z,8072.00
2018-08-09T09:52:48.758Z,8868.00
2018-08-09T09:53:48.403Z,8808.00
2018-08-09T09:54:49.206Z,8540.00
2018-08-09T09:55:48.617Z,8140.00
2018-08-09T09:56:50.886Z,8600.00
2018-08-09T09:57:48.635Z,9768.00
2018-08-09T09:58:48.314Z,10772.00
2018-08-09T09:59:48.784Z,10148.00
2018-08-09T10:00:48.421Z,10296.00
2018-08-09T10:01:48.735Z,10036.00
2018-08-09T10:02:48.394Z,8876.00
2018-08-09T10:03:48.907Z,7756.00
2018-08-09T10:04:48.452Z,7936.00
2018-08-09T10:05:48.040Z,8844.00
2018-08-09T10:06:48.721Z,8408.00
2018-08-09T10:07:50.650Z,7724.00
2018-08-09T10:08:50.698Z,8940.00
2018-08-09T10:09:50.163Z,9588.00
2018-08-09T10:10:48.483Z,8332.00
2018-08-09T10:11:50.348Z,8456.00
2018-08-09T10:12:50.408Z,7396.00
2018-08-09T10:13:50.344Z,7024.00
2018-08-09T10:14:48.915Z,7156.00
2018-08-09T10:15:48.751Z,7732.00
2018-08-09T10:16:50.396Z,8156.00
2018-08-09T10:17:48.836Z,8088.00
2018-08-09T10:18:48.950Z,9132.00
2018-08-09T10:19:50.901Z,9564.00
2018-08-09T10:20:50.592Z,9028.00
2018-08-09T10:21:48.451Z,8744.00
2018-08-09T10:22:49.302Z,8932.00
2018-08-09T10:23:48.795Z,8956.00
2018-08-09T10:24:48.760Z,9336.00
2018-08-09T10:25:48.766Z,9952.00
2018-08-09T10:26:48.424Z,9896.00
2018-08-09T10:27:49.023Z,9888.00
2018-08-09T10:28:48.795Z,8764.00
2018-08-09T10:29:48.982Z,7472.00
2018-08-09T10:30:49.242Z,7024.00
2018-08-09T10:31:49.336Z,6988.00
2018-08-09T10:32:49.511Z,7004.00
2018-08-09T10:33:49.293Z,7036.00
2018-08-09T10:34:49.227Z,7040.00
2018-08-09T10:35:49.198Z,6944.00
2018-08-09T10:36:48.124Z,6940.00
2018-08-09T10:37:49.198Z,6992.00
2018-08-09T10:38:48.860Z,7052.00
2018-08-09T10:39:49.217Z,7060.00
2018-08-09T10:40:49.302Z,6960.00
2018-08-09T10:41:48.462Z,6848.00
2018-08-09T10:42:48.761Z,6768.00
2018-08-09T10:43:49.017Z,6828.00
2018-08-09T10:44:48.773Z,6744.00
2018-08-09T10:45:49.219Z,6744.00
2018-08-09T10:46:48.831Z,6800.00
2018-08-09T10:47:48.767Z,6936.00
2018-08-09T10:48:48.865Z,7132.00
2018-08-09T10:49:49.163Z,7380.00
2018-08-09T10:50:48.941Z,7556.00
2018-08-09T10:51:48.721Z,7740.00
2018-08-09T10:52:49.232Z,8012.00
2018-08-09T10:53:48.866Z,8428.00
2018-08-09T10:54:49.228Z,8988.00
2018-08-09T10:55:48.989Z,9912.00
2018-08-09T10:56:49.237Z,11404.00
2018-08-09T10:57:48.765Z,12980.00
2018-08-09T10:58:49.280Z,13188.00
2018-08-09T10:59:48.963Z,12696.00
2018-08-09T11:00:48.737Z,12000.00
2018-08-09T11:01:48.879Z,11764.00
2018-08-09T11:02:48.963Z,11792.00
2018-08-09T11:03:49.282Z,11976.00
2018-08-09T11:04:49.098Z,12172.00
2018-08-09T11:05:49.231Z,10692.00
2018-08-09T11:06:49.235Z,9640.00
2018-08-09T11:07:49.275Z,9260.00
2018-08-09T11:08:49.218Z,9528.00
2018-08-09T11:09:50.570Z,10544.00
2018-08-09T11:10:49.879Z,10904.00
2018-08-09T11:11:49.277Z,10808.00
2018-08-09T11:12:50.668Z,10876.00
2018-08-09T11:13:49.472Z,10872.00
2018-08-09T11:14:48.773Z,10752.00
2018-08-09T11:15:49.243Z,10636.00
2018-08-09T11:16:48.840Z,11436.00
2018-08-09T11:17:48.745Z,13140.00
2018-08-09T11:18:48.782Z,13708.00
2018-08-09T11:19:48.732Z,14748.00
2018-08-09T11:20:48.727Z,14864.00
2018-08-09T11:21:48.755Z,15080.00
2018-08-09T11:22:49.368Z,14880.00
2018-08-09T11:23:48.733Z,14876.00
2018-08-09T11:24:48.682Z,15220.00
2018-08-09T11:26:49.378Z,15060.00
2018-08-09T11:27:48.790Z,13984.00
2018-08-09T11:28:48.936Z,12240.00
2018-08-09T11:29:48.675Z,10980.00
2018-08-09T11:30:48.882Z,10200.00
2018-08-09T11:31:48.925Z,9596.00
2018-08-09T11:32:48.982Z,8904.00
2018-08-09T11:34:08.988Z,8908.00
2018-08-09T11:34:49.260Z,9100.00
2018-08-09T11:35:48.754Z,9384.00
2018-08-09T11:36:48.765Z,9544.00
2018-08-09T11:37:48.383Z,9768.00
2018-08-09T11:38:48.774Z,9908.00
2018-08-09T11:39:51.035Z,9916.00
2018-08-09T11:40:48.551Z,9456.00
2018-08-09T11:41:49.366Z,10032.00
2018-08-09T11:42:48.767Z,10152.00
2018-08-09T11:43:48.863Z,10156.00
2018-08-09T11:44:48.857Z,10076.00
2018-08-09T11:47:21.708Z,9808.00
2018-08-09T11:48:22.890Z,9816.00
2018-08-09T11:50:16.884Z,9976.00
2018-08-09T11:51:17.337Z,10104.00
2018-08-09T11:53:11.472Z,10388.00
2018-08-09T11:54:12.027Z,10584.00
2018-08-09T11:56:06.173Z,10756.00
2018-08-09T11:57:05.904Z,10704.00
2018-08-09T11:59:00.598Z,10996.00
2018-08-09T12:00:01.426Z,11356.00
2018-08-09T12:01:55.589Z,12928.00
2018-08-09T12:02:55.552Z,23136.00
2018-08-09T12:04:50.008Z,61824.00
2018-08-09T12:05:50.118Z,66624.00
2018-08-09T12:07:44.046Z,65984.00
2018-08-09T12:08:44.864Z,63616.00
2018-08-09T12:10:39.548Z,59680.00
2018-08-09T12:12:53.511Z,32992.00
2018-08-09T12:13:55.692Z,49312.00
2018-08-09T12:15:48.834Z,58368.00
2018-08-09T12:16:48.796Z,53952.00
2018-08-09T12:18:42.677Z,50272.00
2018-08-09T12:19:43.114Z,47776.00
2018-08-09T12:21:37.701Z,42656.00
2018-08-09T12:22:38.373Z,37984.00
2018-08-09T12:24:32.361Z,42240.00
2018-08-09T12:25:33.005Z,31776.00
2018-08-09T12:27:27.868Z,29376.00
2018-08-09T12:28:27.152Z,30912.00
2018-08-09T12:30:21.457Z,34944.00
2018-08-09T12:31:22.201Z,35456.00
2018-08-09T12:33:16.924Z,40640.00
2018-08-09T12:34:16.978Z,40192.00
2018-08-09T12:36:11.054Z,37440.00
2018-08-09T12:37:11.206Z,35808.00
2018-08-09T12:39:06.707Z,34240.00
2018-08-09T12:40:06.157Z,36224.00
2018-08-09T12:43:00.883Z,26912.00
2018-08-09T12:44:55.425Z,23648.00
2018-08-09T12:45:55.518Z,23808.00
2018-08-09T12:47:49.656Z,18656.00
2018-08-09T12:48:50.681Z,10736.00
2018-08-09T12:50:45.016Z,10064.00
2018-08-09T12:51:45.428Z,10360.00
2018-08-09T12:52:45.194Z,8728.00
2018-08-09T12:53:44.504Z,6928.00
2018-08-09T12:54:44.978Z,6296.00
2018-08-09T12:55:44.506Z,5956.00
2018-08-09T12:56:44.941Z,5792.00